sensor_id;sensor_type;location;lat;lon;timestamp;P1;durP1;ratioP1;P2;durP2;ratioP2
62679;SDS011;68213;40.528;44.712;2023-06-22T00:00:44;13.95;;;2.35;;
62679;SDS011;68213;40.528;44.712;2023-06-22T00:01:46;18.33;;;2.92;;
62679;SDS011;68213;40.528;44.712;2023-06-22T00:02:47;20.88;;;2.90;;
62679;SDS011;68213;40.528;44.712;2023-06-22T00:03:48;16.42;;;1.83;;
62679;SDS011;68213;40.528;44.712;2023-06-22T00:04:49;18.55;;;2.45;;
62679;SDS011;68213;40.528;44.712;2023-06-22T00:05:50;16.17;;;2.05;;
62679;SDS011;68213;40.528;44.712;2023-06-22T00:06:51;14.20;;;2.15;;
62679;SDS011;68213;40.528;44.712;2023-06-22T00:07:52;20.02;;;3.08;;
62679;SDS011;68213;40.528;44.712;2023-06-22T00:08:53;16.27;;;2.33;;
62679;SDS011;68213;40.528;44.712;2023-06-22T00:09:53;14.85;;;2.80;;
62679;SDS011;68213;40.528;44.712;2023-06-22T00:10:54;18.05;;;3.10;;
62679;SDS011;68213;40.528;44.712;2023-06-22T00:11:55;15.05;;;2.38;;
62679;SDS011;68213;40.528;44.712;2023-06-22T00:12:55;21.75;;;3.47;;
62679;SDS011;68213;40.528;44.712;2023-06-22T00:13:56;17.77;;;2.50;;
62679;SDS011;68213;40.528;44.712;2023-06-22T00:14:57;20.45;;;3.25;;
62679;SDS011;68213;40.528;44.712;2023-06-22T00:15:58;11.05;;;2.42;;
62679;SDS011;68213;40.528;44.712;2023-06-22T00:17:01;20.77;;;2.85;;
62679;SDS011;68213;40.528;44.712;2023-06-22T00:18:02;16.77;;;3.17;;
62679;SDS011;68213;40.528;44.712;2023-06-22T00:19:03;12.02;;;2.72;;
62679;SDS011;68213;40.528;44.712;2023-06-22T00:20:04;14.93;;;2.78;;
62679;SDS011;68213;40.528;44.712;2023-06-22T00:21:06;19.15;;;2.38;;
62679;SDS011;68213;40.528;44.712;2023-06-22T00:22:07;11.00;;;2.15;;
62679;SDS011;68213;40.528;44.712;2023-06-22T00:23:07;14.13;;;2.25;;
62679;SDS011;68213;40.528;44.712;2023-06-22T00:24:08;9.48;;;1.75;;
62679;SDS011;68213;40.528;44.712;2023-06-22T00:25:09;20.15;;;2.67;;
62679;SDS011;68213;40.528;44.712;2023-06-22T00:26:12;18.63;;;2.70;;
62679;SDS011;68213;40.528;44.712;2023-06-22T00:27:14;16.52;;;3.00;;
62679;SDS011;68213;40.528;44.712;2023-06-22T00:28:14;9.48;;;2.05;;
62679;SDS011;68213;40.528;44.712;2023-06-22T00:29:16;12.23;;;1.95;;
62679;SDS011;68213;40.528;44.712;2023-06-22T00:30:18;9.20;;;1.48;;
62679;SDS011;68213;40.528;44.712;2023-06-22T00:31:19;9.07;;;1.80;;
62679;SDS011;68213;40.528;44.712;2023-06-22T00:32:20;7.53;;;1.77;;
62679;SDS011;68213;40.528;44.712;2023-06-22T00:33:21;10.10;;;1.48;;
62679;SDS011;68213;40.528;44.712;2023-06-22T00:34:21;6.95;;;1.45;;
62679;SDS011;68213;40.528;44.712;2023-06-22T00:35:22;6.25;;;1.33;;
62679;SDS011;68213;40.528;44.712;2023-06-22T00:36:23;5.32;;;1.35;;
62679;SDS011;68213;40.528;44.712;2023-06-22T00:37:25;5.50;;;1.10;;
62679;SDS011;68213;40.528;44.712;2023-06-22T00:38:25;5.60;;;1.23;;
62679;SDS011;68213;40.528;44.712;2023-06-22T00:39:26;4.63;;;1.42;;
62679;SDS011;68213;40.528;44.712;2023-06-22T00:40:27;4.32;;;1.30;;
62679;SDS011;68213;40.528;44.712;2023-06-22T00:41:29;5.30;;;1.08;;
62679;SDS011;68213;40.528;44.712;2023-06-22T00:42:32;3.42;;;0.90;;
62679;SDS011;68213;40.528;44.712;2023-06-22T00:43:33;0.98;;;0.68;;
62679;SDS011;68213;40.528;44.712;2023-06-22T00:44:34;3.38;;;0.80;;
62679;SDS011;68213;40.528;44.712;2023-06-22T00:45:35;6.47;;;0.80;;
62679;SDS011;68213;40.528;44.712;2023-06-22T00:46:36;2.97;;;1.00;;
62679;SDS011;68213;40.528;44.712;2023-06-22T00:47:37;5.05;;;1.00;;
62679;SDS011;68213;40.528;44.712;2023-06-22T00:48:38;3.38;;;1.00;;
62679;SDS011;68213;40.528;44.712;2023-06-22T00:49:44;4.70;;;1.08;;
62679;SDS011;68213;40.528;44.712;2023-06-22T00:50:46;1.10;;;0.70;;
62679;SDS011;68213;40.528;44.712;2023-06-22T00:51:49;3.70;;;0.93;;
62679;SDS011;68213;40.528;44.712;2023-06-22T00:52:53;4.93;;;1.10;;
62679;SDS011;68213;40.528;44.712;2023-06-22T00:53:57;5.00;;;0.90;;
62679;SDS011;68213;40.528;44.712;2023-06-22T00:54:58;6.55;;;1.08;;
62679;SDS011;68213;40.528;44.712;2023-06-22T00:56:04;5.78;;;1.05;;
62679;SDS011;68213;40.528;44.712;2023-06-22T00:57:06;2.80;;;1.00;;
62679;SDS011;68213;40.528;44.712;2023-06-22T00:58:11;3.38;;;1.13;;
62679;SDS011;68213;40.528;44.712;2023-06-22T00:59:13;3.78;;;0.98;;
62679;SDS011;68213;40.528;44.712;2023-06-22T01:00:17;4.30;;;1.00;;
62679;SDS011;68213;40.528;44.712;2023-06-22T01:01:20;4.28;;;1.20;;
62679;SDS011;68213;40.528;44.712;2023-06-22T01:02:23;9.55;;;1.27;;
62679;SDS011;68213;40.528;44.712;2023-06-22T01:03:25;7.72;;;1.17;;
62679;SDS011;68213;40.528;44.712;2023-06-22T01:04:34;7.18;;;1.52;;
62679;SDS011;68213;40.528;44.712;2023-06-22T01:05:39;3.17;;;1.00;;
62679;SDS011;68213;40.528;44.712;2023-06-22T01:07:01;8.10;;;1.40;;
62679;SDS011;68213;40.528;44.712;2023-06-22T01:09:56;2.88;;;1.00;;
62679;SDS011;68213;40.528;44.712;2023-06-22T01:11:18;5.20;;;1.45;;
62679;SDS011;68213;40.528;44.712;2023-06-22T01:12:25;3.95;;;0.82;;
62679;SDS011;68213;40.528;44.712;2023-06-22T01:15:11;3.22;;;1.00;;
62679;SDS011;68213;40.528;44.712;2023-06-22T01:16:30;1.23;;;0.88;;
62679;SDS011;68213;40.528;44.712;2023-06-22T01:17:33;1.55;;;0.80;;
62679;SDS011;68213;40.528;44.712;2023-06-22T01:18:35;1.40;;;0.90;;
62679;SDS011;68213;40.528;44.712;2023-06-22T01:19:49;3.60;;;0.90;;
62679;SDS011;68213;40.528;44.712;2023-06-22T01:20:56;3.40;;;1.00;;
62679;SDS011;68213;40.528;44.712;2023-06-22T01:21:57;2.42;;;1.27;;
62679;SDS011;68213;40.528;44.712;2023-06-22T01:27:09;2.15;;;1.00;;
62679;SDS011;68213;40.528;44.712;2023-06-22T01:29:50;2.55;;;0.70;;
62679;SDS011;68213;40.528;44.712;2023-06-22T01:30:53;3.20;;;1.00;;
62679;SDS011;68213;40.528;44.712;2023-06-22T01:32:03;6.82;;;0.98;;
62679;SDS011;68213;40.528;44.712;2023-06-22T01:33:06;1.13;;;0.75;;
62679;SDS011;68213;40.528;44.712;2023-06-22T01:34:11;2.15;;;0.80;;
62679;SDS011;68213;40.528;44.712;2023-06-22T01:35:13;1.20;;;0.80;;
62679;SDS011;68213;40.528;44.712;2023-06-22T01:36:16;2.83;;;1.00;;
62679;SDS011;68213;40.528;44.712;2023-06-22T01:37:17;0.85;;;0.50;;
62679;SDS011;68213;40.528;44.712;2023-06-22T01:38:18;0.90;;;0.60;;
62679;SDS011;68213;40.528;44.712;2023-06-22T01:39:19;1.92;;;0.70;;
62679;SDS011;68213;40.528;44.712;2023-06-22T01:40:21;2.80;;;0.90;;
62679;SDS011;68213;40.528;44.712;2023-06-22T01:42:26;3.70;;;1.00;;
62679;SDS011;68213;40.528;44.712;2023-06-22T01:43:27;3.03;;;1.10;;
62679;SDS011;68213;40.528;44.712;2023-06-22T01:44:29;1.38;;;0.73;;
62679;SDS011;68213;40.528;44.712;2023-06-22T01:45:30;2.90;;;0.80;;
62679;SDS011;68213;40.528;44.712;2023-06-22T01:46:31;0.82;;;0.63;;
62679;SDS011;68213;40.528;44.712;2023-06-22T01:47:33;0.90;;;0.60;;
62679;SDS011;68213;40.528;44.712;2023-06-22T01:48:34;2.13;;;0.70;;
62679;SDS011;68213;40.528;44.712;2023-06-22T01:49:35;1.85;;;0.90;;
62679;SDS011;68213;40.528;44.712;2023-06-22T01:50:39;3.70;;;0.77;;
62679;SDS011;68213;40.528;44.712;2023-06-22T01:51:40;1.10;;;0.82;;
62679;SDS011;68213;40.528;44.712;2023-06-22T01:52:41;1.17;;;0.85;;
62679;SDS011;68213;40.528;44.712;2023-06-22T01:53:42;1.83;;;1.20;;
62679;SDS011;68213;40.528;44.712;2023-06-22T01:54:43;2.65;;;1.20;;
62679;SDS011;68213;40.528;44.712;2023-06-22T01:55:43;2.42;;;1.10;;
62679;SDS011;68213;40.528;44.712;2023-06-22T01:56:44;1.55;;;1.00;;
62679;SDS011;68213;40.528;44.712;2023-06-22T01:57:45;1.42;;;0.90;;
62679;SDS011;68213;40.528;44.712;2023-06-22T02:00:15;1.65;;;1.02;;
62679;SDS011;68213;40.528;44.712;2023-06-22T02:01:28;1.65;;;1.10;;
62679;SDS011;68213;40.528;44.712;2023-06-22T02:02:37;1.10;;;1.00;;
62679;SDS011;68213;40.528;44.712;2023-06-22T02:03:44;1.27;;;0.95;;
62679;SDS011;68213;40.528;44.712;2023-06-22T02:04:58;6.00;;;1.27;;
62679;SDS011;68213;40.528;44.712;2023-06-22T02:06:05;1.73;;;1.30;;
62679;SDS011;68213;40.528;44.712;2023-06-22T02:07:09;3.40;;;1.00;;
62679;SDS011;68213;40.528;44.712;2023-06-22T02:08:24;1.23;;;1.10;;
62679;SDS011;68213;40.528;44.712;2023-06-22T02:09:30;2.00;;;1.00;;
62679;SDS011;68213;40.528;44.712;2023-06-22T02:10:34;1.63;;;0.90;;
62679;SDS011;68213;40.528;44.712;2023-06-22T02:11:36;5.65;;;0.70;;
62679;SDS011;68213;40.528;44.712;2023-06-22T02:12:40;1.05;;;0.80;;
62679;SDS011;68213;40.528;44.712;2023-06-22T02:13:44;1.92;;;1.00;;
62679;SDS011;68213;40.528;44.712;2023-06-22T02:14:45;1.20;;;0.80;;
62679;SDS011;68213;40.528;44.712;2023-06-22T02:16:58;1.35;;;0.90;;
62679;SDS011;68213;40.528;44.712;2023-06-22T02:18:01;2.22;;;0.82;;
62679;SDS011;68213;40.528;44.712;2023-06-22T02:19:24;1.10;;;0.88;;
62679;SDS011;68213;40.528;44.712;2023-06-22T02:20:26;0.60;;;0.50;;
62679;SDS011;68213;40.528;44.712;2023-06-22T02:21:27;0.77;;;0.70;;
62679;SDS011;68213;40.528;44.712;2023-06-22T02:22:28;1.20;;;0.80;;
62679;SDS011;68213;40.528;44.712;2023-06-22T02:23:28;1.02;;;0.80;;
62679;SDS011;68213;40.528;44.712;2023-06-22T02:24:29;1.50;;;0.98;;
62679;SDS011;68213;40.528;44.712;2023-06-22T02:25:32;1.05;;;0.80;;
62679;SDS011;68213;40.528;44.712;2023-06-22T02:26:35;0.70;;;0.70;;
62679;SDS011;68213;40.528;44.712;2023-06-22T02:27:38;1.67;;;0.90;;
62679;SDS011;68213;40.528;44.712;2023-06-22T02:28:40;0.88;;;0.70;;
62679;SDS011;68213;40.528;44.712;2023-06-22T02:29:41;2.97;;;0.90;;
62679;SDS011;68213;40.528;44.712;2023-06-22T02:30:42;1.08;;;0.80;;
62679;SDS011;68213;40.528;44.712;2023-06-22T02:31:42;1.60;;;0.93;;
62679;SDS011;68213;40.528;44.712;2023-06-22T02:32:43;2.05;;;0.90;;
62679;SDS011;68213;40.528;44.712;2023-06-22T02:33:44;1.48;;;0.90;;
62679;SDS011;68213;40.528;44.712;2023-06-22T02:34:45;1.00;;;0.80;;
62679;SDS011;68213;40.528;44.712;2023-06-22T02:35:47;1.20;;;0.70;;
62679;SDS011;68213;40.528;44.712;2023-06-22T02:36:49;1.70;;;0.70;;
62679;SDS011;68213;40.528;44.712;2023-06-22T02:37:52;0.57;;;0.57;;
62679;SDS011;68213;40.528;44.712;2023-06-22T02:38:54;0.73;;;0.70;;
62679;SDS011;68213;40.528;44.712;2023-06-22T02:39:57;0.95;;;0.70;;
62679;SDS011;68213;40.528;44.712;2023-06-22T02:40:58;2.92;;;0.70;;
62679;SDS011;68213;40.528;44.712;2023-06-22T02:41:59;1.05;;;0.57;;
62679;SDS011;68213;40.528;44.712;2023-06-22T02:43:00;1.00;;;0.70;;
62679;SDS011;68213;40.528;44.712;2023-06-22T02:44:04;0.80;;;0.70;;
62679;SDS011;68213;40.528;44.712;2023-06-22T02:45:05;1.98;;;0.70;;
62679;SDS011;68213;40.528;44.712;2023-06-22T02:46:06;0.88;;;0.77;;
62679;SDS011;68213;40.528;44.712;2023-06-22T02:47:07;1.10;;;0.82;;
62679;SDS011;68213;40.528;44.712;2023-06-22T02:48:09;0.98;;;0.55;;
62679;SDS011;68213;40.528;44.712;2023-06-22T02:49:10;4.10;;;0.90;;
62679;SDS011;68213;40.528;44.712;2023-06-22T02:50:11;1.08;;;0.60;;
62679;SDS011;68213;40.528;44.712;2023-06-22T02:51:12;2.25;;;0.80;;
62679;SDS011;68213;40.528;44.712;2023-06-22T02:52:12;1.35;;;0.90;;
62679;SDS011;68213;40.528;44.712;2023-06-22T02:53:13;3.65;;;1.00;;
62679;SDS011;68213;40.528;44.712;2023-06-22T02:54:14;0.90;;;0.80;;
62679;SDS011;68213;40.528;44.712;2023-06-22T02:55:15;1.40;;;0.65;;
62679;SDS011;68213;40.528;44.712;2023-06-22T02:56:16;3.22;;;0.82;;
62679;SDS011;68213;40.528;44.712;2023-06-22T02:57:17;0.85;;;0.70;;
62679;SDS011;68213;40.528;44.712;2023-06-22T02:58:18;2.72;;;0.80;;
62679;SDS011;68213;40.528;44.712;2023-06-22T02:59:19;1.15;;;1.00;;
62679;SDS011;68213;40.528;44.712;2023-06-22T03:00:23;5.75;;;0.80;;
62679;SDS011;68213;40.528;44.712;2023-06-22T03:01:30;0.77;;;0.60;;
62679;SDS011;68213;40.528;44.712;2023-06-22T03:02:39;0.98;;;0.57;;
62679;SDS011;68213;40.528;44.712;2023-06-22T03:03:40;0.77;;;0.60;;
62679;SDS011;68213;40.528;44.712;2023-06-22T03:04:43;0.80;;;0.80;;
62679;SDS011;68213;40.528;44.712;2023-06-22T03:05:44;0.80;;;0.52;;
62679;SDS011;68213;40.528;44.712;2023-06-22T03:06:45;1.70;;;1.08;;
62679;SDS011;68213;40.528;44.712;2023-06-22T03:07:51;3.15;;;0.65;;
62679;SDS011;68213;40.528;44.712;2023-06-22T03:08:51;2.67;;;0.90;;
62679;SDS011;68213;40.528;44.712;2023-06-22T03:09:52;2.17;;;0.80;;
62679;SDS011;68213;40.528;44.712;2023-06-22T03:10:53;2.08;;;0.60;;
62679;SDS011;68213;40.528;44.712;2023-06-22T03:11:54;1.60;;;0.85;;
62679;SDS011;68213;40.528;44.712;2023-06-22T03:12:57;1.55;;;0.70;;
62679;SDS011;68213;40.528;44.712;2023-06-22T03:13:59;0.63;;;0.60;;
62679;SDS011;68213;40.528;44.712;2023-06-22T03:16:11;0.77;;;0.60;;
62679;SDS011;68213;40.528;44.712;2023-06-22T03:17:13;0.75;;;0.60;;
62679;SDS011;68213;40.528;44.712;2023-06-22T03:18:13;1.35;;;0.50;;
62679;SDS011;68213;40.528;44.712;2023-06-22T03:19:15;1.20;;;0.50;;
62679;SDS011;68213;40.528;44.712;2023-06-22T03:20:16;0.70;;;0.50;;
62679;SDS011;68213;40.528;44.712;2023-06-22T03:21:17;0.60;;;0.40;;
62679;SDS011;68213;40.528;44.712;2023-06-22T03:22:18;0.93;;;0.70;;
62679;SDS011;68213;40.528;44.712;2023-06-22T03:23:19;1.67;;;0.60;;
62679;SDS011;68213;40.528;44.712;2023-06-22T03:24:19;3.25;;;0.70;;
62679;SDS011;68213;40.528;44.712;2023-06-22T03:25:20;0.90;;;0.60;;
62679;SDS011;68213;40.528;44.712;2023-06-22T03:26:21;0.50;;;0.40;;
62679;SDS011;68213;40.528;44.712;2023-06-22T03:27:23;1.13;;;0.57;;
62679;SDS011;68213;40.528;44.712;2023-06-22T03:28:24;1.00;;;0.70;;
62679;SDS011;68213;40.528;44.712;2023-06-22T03:29:24;1.65;;;0.70;;
62679;SDS011;68213;40.528;44.712;2023-06-22T03:30:25;0.65;;;0.60;;
62679;SDS011;68213;40.528;44.712;2023-06-22T03:31:26;2.38;;;0.88;;
62679;SDS011;68213;40.528;44.712;2023-06-22T03:32:27;1.27;;;0.50;;
62679;SDS011;68213;40.528;44.712;2023-06-22T03:33:28;1.20;;;0.70;;
62679;SDS011;68213;40.528;44.712;2023-06-22T03:34:29;0.57;;;0.50;;
62679;SDS011;68213;40.528;44.712;2023-06-22T03:35:34;0.73;;;0.68;;
62679;SDS011;68213;40.528;44.712;2023-06-22T03:36:35;0.85;;;0.75;;
62679;SDS011;68213;40.528;44.712;2023-06-22T03:37:36;1.73;;;0.80;;
62679;SDS011;68213;40.528;44.712;2023-06-22T03:38:39;2.03;;;0.90;;
62679;SDS011;68213;40.528;44.712;2023-06-22T03:39:40;2.60;;;0.90;;
62679;SDS011;68213;40.528;44.712;2023-06-22T03:40:41;0.85;;;0.73;;
62679;SDS011;68213;40.528;44.712;2023-06-22T03:41:42;0.82;;;0.80;;
62679;SDS011;68213;40.528;44.712;2023-06-22T03:42:43;1.20;;;0.68;;
62679;SDS011;68213;40.528;44.712;2023-06-22T03:43:43;1.33;;;0.85;;
62679;SDS011;68213;40.528;44.712;2023-06-22T03:44:44;1.98;;;1.02;;
62679;SDS011;68213;40.528;44.712;2023-06-22T03:45:45;1.83;;;1.00;;
62679;SDS011;68213;40.528;44.712;2023-06-22T03:46:46;2.13;;;0.75;;
62679;SDS011;68213;40.528;44.712;2023-06-22T03:47:49;1.02;;;0.70;;
62679;SDS011;68213;40.528;44.712;2023-06-22T03:48:50;0.80;;;0.80;;
62679;SDS011;68213;40.528;44.712;2023-06-22T03:49:50;0.80;;;0.70;;
62679;SDS011;68213;40.528;44.712;2023-06-22T03:50:56;1.05;;;0.80;;
62679;SDS011;68213;40.528;44.712;2023-06-22T03:51:59;2.20;;;0.80;;
62679;SDS011;68213;40.528;44.712;2023-06-22T03:53:01;1.17;;;0.80;;
62679;SDS011;68213;40.528;44.712;2023-06-22T03:54:02;0.90;;;0.70;;
62679;SDS011;68213;40.528;44.712;2023-06-22T03:55:04;1.00;;;0.77;;
62679;SDS011;68213;40.528;44.712;2023-06-22T03:56:06;0.98;;;0.65;;
62679;SDS011;68213;40.528;44.712;2023-06-22T03:57:07;3.90;;;0.80;;
62679;SDS011;68213;40.528;44.712;2023-06-22T03:58:08;2.50;;;0.80;;
62679;SDS011;68213;40.528;44.712;2023-06-22T03:59:09;4.03;;;1.23;;
62679;SDS011;68213;40.528;44.712;2023-06-22T04:00:10;6.90;;;1.67;;
62679;SDS011;68213;40.528;44.712;2023-06-22T04:01:12;3.55;;;1.20;;
62679;SDS011;68213;40.528;44.712;2023-06-22T04:02:13;2.72;;;0.93;;
62679;SDS011;68213;40.528;44.712;2023-06-22T04:03:16;2.13;;;1.20;;
62679;SDS011;68213;40.528;44.712;2023-06-22T04:04:20;3.88;;;1.25;;
62679;SDS011;68213;40.528;44.712;2023-06-22T04:05:21;2.65;;;1.10;;
62679;SDS011;68213;40.528;44.712;2023-06-22T04:06:22;5.82;;;1.20;;
62679;SDS011;68213;40.528;44.712;2023-06-22T04:07:23;3.28;;;1.40;;
62679;SDS011;68213;40.528;44.712;2023-06-22T04:08:23;3.78;;;1.08;;
62679;SDS011;68213;40.528;44.712;2023-06-22T04:09:24;4.53;;;1.20;;
62679;SDS011;68213;40.528;44.712;2023-06-22T04:10:25;6.05;;;1.00;;
62679;SDS011;68213;40.528;44.712;2023-06-22T04:11:25;3.47;;;0.90;;
62679;SDS011;68213;40.528;44.712;2023-06-22T04:12:27;2.83;;;1.20;;
62679;SDS011;68213;40.528;44.712;2023-06-22T04:13:27;6.85;;;1.20;;
62679;SDS011;68213;40.528;44.712;2023-06-22T04:14:28;2.95;;;1.20;;
62679;SDS011;68213;40.528;44.712;2023-06-22T04:15:29;1.85;;;1.00;;
62679;SDS011;68213;40.528;44.712;2023-06-22T04:16:29;4.22;;;1.20;;
62679;SDS011;68213;40.528;44.712;2023-06-22T04:17:30;3.47;;;0.85;;
62679;SDS011;68213;40.528;44.712;2023-06-22T04:18:31;3.05;;;0.90;;
62679;SDS011;68213;40.528;44.712;2023-06-22T04:19:31;3.65;;;1.52;;
62679;SDS011;68213;40.528;44.712;2023-06-22T04:20:32;2.97;;;0.85;;
62679;SDS011;68213;40.528;44.712;2023-06-22T04:21:33;1.02;;;0.70;;
62679;SDS011;68213;40.528;44.712;2023-06-22T04:22:34;0.68;;;0.60;;
62679;SDS011;68213;40.528;44.712;2023-06-22T04:23:34;1.52;;;0.70;;
62679;SDS011;68213;40.528;44.712;2023-06-22T04:24:35;4.20;;;0.80;;
62679;SDS011;68213;40.528;44.712;2023-06-22T04:25:37;4.63;;;1.20;;
62679;SDS011;68213;40.528;44.712;2023-06-22T04:26:38;9.98;;;1.60;;
62679;SDS011;68213;40.528;44.712;2023-06-22T04:27:41;6.35;;;1.00;;
62679;SDS011;68213;40.528;44.712;2023-06-22T04:28:42;14.73;;;2.03;;
62679;SDS011;68213;40.528;44.712;2023-06-22T04:29:43;18.73;;;2.33;;
62679;SDS011;68213;40.528;44.712;2023-06-22T04:30:48;28.42;;;3.40;;
62679;SDS011;68213;40.528;44.712;2023-06-22T04:31:51;23.38;;;2.58;;
62679;SDS011;68213;40.528;44.712;2023-06-22T04:32:51;25.25;;;3.83;;
62679;SDS011;68213;40.528;44.712;2023-06-22T04:33:59;24.55;;;3.20;;
62679;SDS011;68213;40.528;44.712;2023-06-22T04:35:06;15.93;;;2.38;;
62679;SDS011;68213;40.528;44.712;2023-06-22T04:36:07;24.70;;;3.38;;
62679;SDS011;68213;40.528;44.712;2023-06-22T04:37:08;23.67;;;3.40;;
62679;SDS011;68213;40.528;44.712;2023-06-22T04:38:08;27.80;;;3.28;;
62679;SDS011;68213;40.528;44.712;2023-06-22T04:39:10;30.70;;;3.80;;
62679;SDS011;68213;40.528;44.712;2023-06-22T04:40:11;24.88;;;4.05;;
62679;SDS011;68213;40.528;44.712;2023-06-22T04:41:14;32.25;;;4.55;;
62679;SDS011;68213;40.528;44.712;2023-06-22T04:42:26;40.92;;;4.60;;
62679;SDS011;68213;40.528;44.712;2023-06-22T04:43:27;43.28;;;5.30;;
62679;SDS011;68213;40.528;44.712;2023-06-22T04:44:30;36.30;;;4.75;;
62679;SDS011;68213;40.528;44.712;2023-06-22T04:45:31;42.63;;;5.53;;
62679;SDS011;68213;40.528;44.712;2023-06-22T04:46:38;37.00;;;5.82;;
62679;SDS011;68213;40.528;44.712;2023-06-22T04:47:39;53.88;;;6.57;;
62679;SDS011;68213;40.528;44.712;2023-06-22T04:48:40;51.40;;;7.55;;
62679;SDS011;68213;40.528;44.712;2023-06-22T04:49:40;50.40;;;6.95;;
62679;SDS011;68213;40.528;44.712;2023-06-22T04:50:43;42.83;;;6.65;;
62679;SDS011;68213;40.528;44.712;2023-06-22T04:51:44;40.25;;;7.28;;
62679;SDS011;68213;40.528;44.712;2023-06-22T04:52:45;57.88;;;7.18;;
62679;SDS011;68213;40.528;44.712;2023-06-22T04:53:46;59.33;;;8.30;;
62679;SDS011;68213;40.528;44.712;2023-06-22T04:54:47;57.15;;;7.82;;
62679;SDS011;68213;40.528;44.712;2023-06-22T04:55:48;53.03;;;7.35;;
62679;SDS011;68213;40.528;44.712;2023-06-22T04:56:49;43.78;;;6.20;;
62679;SDS011;68213;40.528;44.712;2023-06-22T04:57:57;54.15;;;6.45;;
62679;SDS011;68213;40.528;44.712;2023-06-22T04:59:04;46.05;;;4.75;;
62679;SDS011;68213;40.528;44.712;2023-06-22T05:00:07;41.88;;;5.53;;
62679;SDS011;68213;40.528;44.712;2023-06-22T05:01:14;42.38;;;6.20;;
62679;SDS011;68213;40.528;44.712;2023-06-22T05:02:14;33.65;;;5.75;;
62679;SDS011;68213;40.528;44.712;2023-06-22T05:03:15;29.20;;;3.65;;
62679;SDS011;68213;40.528;44.712;2023-06-22T05:04:18;31.42;;;3.95;;
62679;SDS011;68213;40.528;44.712;2023-06-22T05:05:19;30.80;;;4.70;;
62679;SDS011;68213;40.528;44.712;2023-06-22T05:06:21;31.75;;;4.47;;
62679;SDS011;68213;40.528;44.712;2023-06-22T05:07:24;30.77;;;4.72;;
62679;SDS011;68213;40.528;44.712;2023-06-22T05:08:26;33.33;;;4.72;;
62679;SDS011;68213;40.528;44.712;2023-06-22T05:09:29;42.45;;;5.13;;
62679;SDS011;68213;40.528;44.712;2023-06-22T05:10:30;39.17;;;5.20;;
62679;SDS011;68213;40.528;44.712;2023-06-22T05:11:31;45.92;;;5.63;;
62679;SDS011;68213;40.528;44.712;2023-06-22T05:12:34;41.72;;;5.57;;
62679;SDS011;68213;40.528;44.712;2023-06-22T05:13:35;44.22;;;5.25;;
62679;SDS011;68213;40.528;44.712;2023-06-22T05:14:35;44.85;;;5.55;;
62679;SDS011;68213;40.528;44.712;2023-06-22T05:15:36;35.65;;;5.70;;
62679;SDS011;68213;40.528;44.712;2023-06-22T05:16:43;37.75;;;5.07;;
62679;SDS011;68213;40.528;44.712;2023-06-22T05:17:45;34.08;;;4.80;;
62679;SDS011;68213;40.528;44.712;2023-06-22T05:18:45;41.95;;;5.50;;
62679;SDS011;68213;40.528;44.712;2023-06-22T05:19:46;43.17;;;4.95;;
62679;SDS011;68213;40.528;44.712;2023-06-22T05:20:50;40.63;;;6.35;;
62679;SDS011;68213;40.528;44.712;2023-06-22T05:21:50;38.25;;;5.03;;
62679;SDS011;68213;40.528;44.712;2023-06-22T05:22:51;31.95;;;4.68;;
62679;SDS011;68213;40.528;44.712;2023-06-22T05:23:55;26.35;;;4.20;;
62679;SDS011;68213;40.528;44.712;2023-06-22T05:25:00;42.60;;;4.07;;
62679;SDS011;68213;40.528;44.712;2023-06-22T05:26:00;38.28;;;4.75;;
62679;SDS011;68213;40.528;44.712;2023-06-22T05:27:01;23.63;;;4.10;;
62679;SDS011;68213;40.528;44.712;2023-06-22T05:28:02;30.50;;;3.78;;
62679;SDS011;68213;40.528;44.712;2023-06-22T05:29:10;28.15;;;2.90;;
62679;SDS011;68213;40.528;44.712;2023-06-22T05:30:11;27.13;;;2.97;;
62679;SDS011;68213;40.528;44.712;2023-06-22T05:31:15;18.17;;;2.50;;
62679;SDS011;68213;40.528;44.712;2023-06-22T05:32:20;21.90;;;2.55;;
62679;SDS011;68213;40.528;44.712;2023-06-22T05:33:21;19.17;;;2.60;;
62679;SDS011;68213;40.528;44.712;2023-06-22T05:34:21;12.10;;;2.03;;
62679;SDS011;68213;40.528;44.712;2023-06-22T05:35:22;13.35;;;2.08;;
62679;SDS011;68213;40.528;44.712;2023-06-22T05:36:23;19.33;;;2.13;;
62679;SDS011;68213;40.528;44.712;2023-06-22T05:37:27;15.00;;;1.83;;
62679;SDS011;68213;40.528;44.712;2023-06-22T05:38:29;13.02;;;1.60;;
62679;SDS011;68213;40.528;44.712;2023-06-22T05:39:33;15.75;;;2.22;;
62679;SDS011;68213;40.528;44.712;2023-06-22T05:40:33;14.45;;;1.60;;
62679;SDS011;68213;40.528;44.712;2023-06-22T05:41:34;14.93;;;2.22;;
62679;SDS011;68213;40.528;44.712;2023-06-22T05:42:35;17.15;;;2.17;;
62679;SDS011;68213;40.528;44.712;2023-06-22T05:43:36;10.10;;;1.48;;
62679;SDS011;68213;40.528;44.712;2023-06-22T05:44:36;12.65;;;1.95;;
62679;SDS011;68213;40.528;44.712;2023-06-22T05:45:39;12.45;;;1.60;;
62679;SDS011;68213;40.528;44.712;2023-06-22T05:46:40;6.13;;;1.00;;
62679;SDS011;68213;40.528;44.712;2023-06-22T05:47:46;2.65;;;0.90;;
62679;SDS011;68213;40.528;44.712;2023-06-22T05:48:47;6.68;;;1.23;;
62679;SDS011;68213;40.528;44.712;2023-06-22T05:49:47;7.47;;;1.40;;
62679;SDS011;68213;40.528;44.712;2023-06-22T05:50:48;8.00;;;1.23;;
62679;SDS011;68213;40.528;44.712;2023-06-22T05:51:49;5.47;;;1.02;;
62679;SDS011;68213;40.528;44.712;2023-06-22T05:52:50;4.32;;;0.80;;
62679;SDS011;68213;40.528;44.712;2023-06-22T05:53:50;3.08;;;0.75;;
62679;SDS011;68213;40.528;44.712;2023-06-22T05:54:51;2.03;;;0.82;;
62679;SDS011;68213;40.528;44.712;2023-06-22T05:55:52;2.00;;;0.80;;
62679;SDS011;68213;40.528;44.712;2023-06-22T05:56:53;2.42;;;0.80;;
62679;SDS011;68213;40.528;44.712;2023-06-22T05:57:53;2.22;;;0.80;;
62679;SDS011;68213;40.528;44.712;2023-06-22T05:58:54;3.53;;;0.80;;
62679;SDS011;68213;40.528;44.712;2023-06-22T05:59:55;1.27;;;0.70;;
62679;SDS011;68213;40.528;44.712;2023-06-22T06:00:56;2.25;;;0.70;;
62679;SDS011;68213;40.528;44.712;2023-06-22T06:01:56;1.10;;;0.70;;
62679;SDS011;68213;40.528;44.712;2023-06-22T06:04:05;1.60;;;0.95;;
62679;SDS011;68213;40.528;44.712;2023-06-22T06:05:08;1.15;;;0.65;;
62679;SDS011;68213;40.528;44.712;2023-06-22T06:06:14;1.67;;;0.70;;
62679;SDS011;68213;40.528;44.712;2023-06-22T06:07:15;2.47;;;0.95;;
62679;SDS011;68213;40.528;44.712;2023-06-22T06:08:16;2.13;;;0.80;;
62679;SDS011;68213;40.528;44.712;2023-06-22T06:09:16;1.70;;;0.80;;
62679;SDS011;68213;40.528;44.712;2023-06-22T06:10:17;1.60;;;0.65;;
62679;SDS011;68213;40.528;44.712;2023-06-22T06:11:19;2.35;;;0.90;;
62679;SDS011;68213;40.528;44.712;2023-06-22T06:12:20;0.98;;;0.90;;
62679;SDS011;68213;40.528;44.712;2023-06-22T06:13:23;2.50;;;0.70;;
62679;SDS011;68213;40.528;44.712;2023-06-22T06:14:24;1.55;;;0.82;;
62679;SDS011;68213;40.528;44.712;2023-06-22T06:15:24;1.42;;;0.73;;
62679;SDS011;68213;40.528;44.712;2023-06-22T06:16:25;2.47;;;0.90;;
62679;SDS011;68213;40.528;44.712;2023-06-22T06:17:26;3.75;;;0.98;;
62679;SDS011;68213;40.528;44.712;2023-06-22T06:18:26;1.10;;;1.00;;
62679;SDS011;68213;40.528;44.712;2023-06-22T06:19:27;1.55;;;0.80;;
62679;SDS011;68213;40.528;44.712;2023-06-22T06:20:28;2.50;;;0.93;;
62679;SDS011;68213;40.528;44.712;2023-06-22T06:21:29;1.17;;;0.73;;
62679;SDS011;68213;40.528;44.712;2023-06-22T06:22:30;1.50;;;0.90;;
62679;SDS011;68213;40.528;44.712;2023-06-22T06:23:30;3.47;;;0.90;;